Terminal Aerodrome Forecast
Issued by NWS

Home | Current Version | Previous Version | Text Only | Print | Product List | Glossary On
Versions: 1 2 3 4 5 6 7 8 9 10 11 12 13
000
FTUS45 KFGZ 011740
TAFPRC
TAF
KPRC 011740Z 0118/0218 19006KT P6SM -SHRA FEW080 OVC100
     FM011900 VRB06KT P6SM VCSH BKN060 BKN110
      TEMPO 0120/0124 VRB15G25KT 5SM TSRA OVC040CB
     FM020200 VRB04KT P6SM FEW060 SCT110 PROB30 0203/0207 -SHRA
      BKN060=

USA.gov is the U.S. government's official web portal to all federal, state and local government web resources and services.